createdAt,value
2023-04-18T00:01:44.556Z,1.30
2023-04-18T00:04:13.616Z,1.40
2023-04-18T00:06:40.905Z,1.27
2023-04-18T00:09:07.674Z,1.50
2023-04-18T00:11:34.899Z,1.50
2023-04-18T00:14:03.314Z,1.20
2023-04-18T00:16:30.213Z,1.30
2023-04-18T00:18:57.461Z,1.40
2023-04-18T00:21:25.634Z,1.30
2023-04-18T00:23:52.516Z,1.20
2023-04-18T00:26:19.342Z,1.20
2023-04-18T00:28:47.892Z,0.93
2023-04-18T00:31:14.613Z,1.23
2023-04-18T00:33:41.419Z,1.33
2023-04-18T00:36:08.183Z,1.30
2023-04-18T00:38:35.691Z,1.25
2023-04-18T00:41:02.368Z,1.30
2023-04-18T00:43:28.993Z,1.40
2023-04-18T00:45:57.188Z,1.38
2023-04-18T00:48:24.579Z,1.50
2023-04-18T00:50:51.225Z,1.10
2023-04-18T00:53:17.878Z,1.25
2023-04-18T00:55:44.682Z,1.35
2023-04-18T00:58:12.066Z,1.20
2023-04-18T01:00:38.704Z,1.40
2023-04-18T01:03:06.741Z,1.40
2023-04-18T01:05:35.145Z,1.80
2023-04-18T01:08:04.094Z,1.50
2023-04-18T01:10:35.851Z,1.20
2023-04-18T01:13:16.563Z,1.10
2023-04-18T01:15:44.954Z,1.20
2023-04-18T01:18:13.195Z,1.23
2023-04-18T01:20:42.471Z,1.70
2023-04-18T01:23:10.596Z,3.47
2023-04-18T01:25:37.403Z,1.20
2023-04-18T01:28:04.652Z,1.35
2023-04-18T01:30:31.535Z,1.25
2023-04-18T01:32:58.628Z,1.30
2023-04-18T01:35:27.038Z,1.30
2023-04-18T01:37:57.188Z,1.60
2023-04-18T01:40:24.716Z,1.70
2023-04-18T01:42:51.643Z,1.65
2023-04-18T01:45:20.036Z,1.48
2023-04-18T01:47:47.011Z,1.45
2023-04-18T01:50:14.154Z,1.40
2023-04-18T01:52:42.765Z,1.20
2023-04-18T01:55:09.954Z,1.30
2023-04-18T01:57:36.787Z,1.27
2023-04-18T02:00:06.158Z,1.20
2023-04-18T02:02:41.558Z,1.50
2023-04-18T02:05:09.170Z,1.50
2023-04-18T02:07:40.251Z,1.52
2023-04-18T02:10:07.869Z,1.48
2023-04-18T02:12:34.499Z,1.52
2023-04-18T02:15:01.355Z,1.53
2023-04-18T02:17:28.535Z,1.70
2023-04-18T02:19:55.226Z,1.20
2023-04-18T02:22:21.960Z,1.42
2023-04-18T02:24:48.614Z,1.52
2023-04-18T02:27:15.291Z,1.43
2023-04-18T02:29:41.987Z,1.38
2023-04-18T02:32:09.165Z,1.30
2023-04-18T02:34:36.953Z,1.25
2023-04-18T02:37:04.822Z,1.10
2023-04-18T02:39:32.562Z,1.27
2023-04-18T02:41:59.480Z,1.70
2023-04-18T02:44:26.402Z,1.90
2023-04-18T02:46:53.321Z,1.42
2023-04-18T02:49:20.293Z,1.70
2023-04-18T02:51:48.126Z,1.23
2023-04-18T02:54:16.871Z,1.20
2023-04-18T02:56:58.623Z,1.55
2023-04-18T02:59:36.160Z,1.58
2023-04-18T03:02:29.593Z,1.40
2023-04-18T03:05:02.429Z,1.43
2023-04-18T03:07:31.078Z,1.38
2023-04-18T03:10:00.006Z,1.40
2023-04-18T03:12:31.754Z,1.20
2023-04-18T03:14:59.643Z,1.33
2023-04-18T03:17:28.171Z,1.40
2023-04-18T03:19:55.180Z,1.35
2023-04-18T03:22:23.375Z,1.25
2023-04-18T03:24:55.396Z,1.60
2023-04-18T03:27:29.913Z,1.80
2023-04-18T03:29:57.100Z,1.80
2023-04-18T03:32:24.475Z,1.30
2023-04-18T03:34:51.676Z,1.10
2023-04-18T03:37:19.080Z,1.48
2023-04-18T03:39:50.769Z,2.22
2023-04-18T03:42:17.974Z,2.10
2023-04-18T03:44:44.948Z,1.80
2023-04-18T03:47:12.306Z,1.80
2023-04-18T03:49:41.886Z,1.90
2023-04-18T03:52:08.903Z,1.65
2023-04-18T03:54:35.776Z,1.60
2023-04-18T03:57:04.238Z,1.80
2023-04-18T03:59:32.673Z,1.48
2023-04-18T04:02:00.326Z,1.50
2023-04-18T04:04:27.845Z,1.90
2023-04-18T04:06:56.727Z,1.50
2023-04-18T04:09:23.619Z,2.67
2023-04-18T04:11:50.763Z,1.75
2023-04-18T04:14:17.674Z,1.50
2023-04-18T04:16:46.363Z,1.40
2023-04-18T04:19:16.255Z,1.30
2023-04-18T04:21:51.382Z,1.60
2023-04-18T04:24:18.732Z,1.63
2023-04-18T04:26:48.823Z,1.85
2023-04-18T04:29:19.709Z,1.50
2023-04-18T04:31:48.030Z,1.30
2023-04-18T04:34:22.816Z,1.42
2023-04-18T04:36:51.233Z,1.48
2023-04-18T04:39:18.761Z,1.50
2023-04-18T04:42:09.735Z,1.50
2023-04-18T04:44:46.678Z,1.93
2023-04-18T04:47:15.372Z,1.50
2023-04-18T04:49:42.249Z,1.77
2023-04-18T04:52:09.908Z,1.48
2023-04-18T04:54:36.829Z,1.67
2023-04-18T04:57:06.049Z,1.50
2023-04-18T04:59:32.986Z,2.20
2023-04-18T05:02:01.220Z,1.33
2023-04-18T05:04:28.245Z,1.80
2023-04-18T05:06:57.014Z,1.88
2023-04-18T05:09:24.111Z,1.50
2023-04-18T05:11:50.993Z,1.98
2023-04-18T05:14:18.022Z,2.55
2023-04-18T05:16:45.122Z,1.80
2023-04-18T05:19:12.099Z,2.40
2023-04-18T05:21:38.982Z,1.60
2023-04-18T05:24:05.887Z,1.63
2023-04-18T05:26:32.749Z,1.60
2023-04-18T05:28:59.867Z,2.00
2023-04-18T05:31:26.901Z,1.77
2023-04-18T05:33:53.901Z,2.23
2023-04-18T05:36:20.850Z,1.80
2023-04-18T05:38:47.790Z,1.45
2023-04-18T05:41:14.622Z,2.00
2023-04-18T05:43:43.019Z,1.98
2023-04-18T05:46:13.318Z,1.83
2023-04-18T05:48:40.183Z,1.60
2023-04-18T05:51:07.194Z,1.42
2023-04-18T05:53:34.344Z,1.35
2023-04-18T05:56:01.464Z,2.05
2023-04-18T05:58:28.970Z,1.40
2023-04-18T06:00:56.055Z,1.33
2023-04-18T06:03:23.069Z,1.33
2023-04-18T06:05:50.365Z,1.65
2023-04-18T06:08:17.215Z,1.83
2023-04-18T06:10:44.104Z,1.67
2023-04-18T06:13:11.019Z,1.40
2023-04-18T06:15:38.043Z,2.17
2023-04-18T06:18:06.424Z,1.73
2023-04-18T06:20:33.414Z,1.90
2023-04-18T06:23:00.271Z,1.97
2023-04-18T06:25:29.942Z,1.92
2023-04-18T06:27:56.915Z,1.60
2023-04-18T06:30:23.912Z,1.20
2023-04-18T06:32:50.874Z,1.70
2023-04-18T06:35:17.995Z,1.17
2023-04-18T06:37:45.491Z,1.38
2023-04-18T06:40:12.648Z,1.40
2023-04-18T06:42:39.651Z,1.45
2023-04-18T06:45:07.216Z,1.40
2023-04-18T06:47:34.211Z,1.40
2023-04-18T06:50:01.153Z,1.55
2023-04-18T06:52:28.018Z,1.40
2023-04-18T06:54:54.907Z,1.27
2023-04-18T06:57:21.912Z,1.40
2023-04-18T06:59:48.745Z,1.50
2023-04-18T07:02:15.782Z,1.35
2023-04-18T07:04:42.809Z,1.25
2023-04-18T07:07:09.919Z,1.40
2023-04-18T07:09:36.713Z,1.17
2023-04-18T07:12:03.747Z,1.40
2023-04-18T07:14:32.892Z,1.20
2023-04-18T07:17:01.727Z,1.17
2023-04-18T07:19:28.809Z,1.38
2023-04-18T07:21:56.086Z,1.30
2023-04-18T07:24:25.811Z,1.40
2023-04-18T07:26:54.927Z,1.23
2023-04-18T07:29:22.272Z,1.20
2023-04-18T07:31:49.469Z,1.50
2023-04-18T07:34:16.573Z,1.40
2023-04-18T07:36:43.553Z,1.30
2023-04-18T07:39:11.099Z,1.48
2023-04-18T07:41:38.002Z,1.30
2023-04-18T07:44:05.195Z,1.38
2023-04-18T07:46:32.572Z,1.20
2023-04-18T07:48:59.743Z,1.50
2023-04-18T07:51:31.407Z,1.10
2023-04-18T07:53:59.045Z,1.35
2023-04-18T07:56:27.020Z,1.23
2023-04-18T07:58:54.489Z,0.90
2023-04-18T08:01:24.259Z,1.10
2023-04-18T08:03:52.573Z,1.83
2023-04-18T08:06:19.452Z,1.50
2023-04-18T08:08:46.500Z,1.30
2023-04-18T08:11:13.379Z,1.40
2023-04-18T08:13:40.373Z,1.33
2023-04-18T08:16:07.339Z,1.73
2023-04-18T08:18:34.294Z,1.80
2023-04-18T08:21:01.132Z,1.73
2023-04-18T08:23:27.995Z,1.30
2023-04-18T08:25:54.916Z,1.90
2023-04-18T08:28:21.939Z,1.65
2023-04-18T08:30:49.248Z,1.58
2023-04-18T08:33:16.413Z,1.70
2023-04-18T08:35:43.520Z,1.40
2023-04-18T08:38:10.558Z,1.47
2023-04-18T08:40:38.652Z,1.35
2023-04-18T08:43:09.467Z,1.60
2023-04-18T08:45:37.038Z,1.60
2023-04-18T08:48:04.140Z,1.60
2023-04-18T08:50:31.960Z,1.60
2023-04-18T08:53:00.954Z,1.77
2023-04-18T08:55:27.944Z,1.90
2023-04-18T08:57:55.667Z,1.80
2023-04-18T09:00:23.758Z,1.52
2023-04-18T09:02:55.140Z,2.03
2023-04-18T09:05:23.669Z,1.50
2023-04-18T09:07:53.000Z,1.50
2023-04-18T09:10:34.195Z,1.60
2023-04-18T09:13:03.273Z,1.23
2023-04-18T09:15:30.799Z,1.53
2023-04-18T09:18:02.292Z,1.33
2023-04-18T09:20:43.904Z,1.70
2023-04-18T09:23:14.644Z,1.60
2023-04-18T09:25:44.247Z,1.92
2023-04-18T09:28:27.049Z,1.20
2023-04-18T09:30:56.190Z,1.60
2023-04-18T09:33:28.405Z,1.92
2023-04-18T09:35:56.491Z,1.60
2023-04-18T09:38:41.915Z,1.20
2023-04-18T09:41:12.470Z,1.43
2023-04-18T09:43:39.372Z,1.40
2023-04-18T09:46:07.598Z,1.33
2023-04-18T09:48:34.368Z,1.40
2023-04-18T09:51:09.299Z,1.50
2023-04-18T09:53:39.989Z,1.70
2023-04-18T09:56:12.879Z,1.55
2023-04-18T09:58:42.280Z,1.38
2023-04-18T10:01:09.306Z,1.60
2023-04-18T10:03:44.742Z,1.35
2023-04-18T10:06:12.350Z,2.23
2023-04-18T10:08:40.026Z,1.50
2023-04-18T10:11:06.718Z,1.48
2023-04-18T10:13:36.129Z,1.05
2023-04-18T10:16:03.233Z,1.30
2023-04-18T10:18:29.920Z,1.40
2023-04-18T10:21:04.043Z,1.38
2023-04-18T10:23:49.212Z,1.23
2023-04-18T10:26:16.299Z,1.40
2023-04-18T10:28:48.917Z,1.42
2023-04-18T10:31:16.885Z,1.50
2023-04-18T10:34:03.884Z,1.63
2023-04-18T10:36:33.044Z,1.38
2023-04-18T10:39:02.999Z,1.50
2023-04-18T10:41:31.406Z,1.58
2023-04-18T10:44:10.164Z,1.50
2023-04-18T10:46:41.876Z,1.20
2023-04-18T10:49:28.427Z,1.10
2023-04-18T10:52:00.717Z,1.30
2023-04-18T10:54:49.466Z,1.00
2023-04-18T10:57:16.399Z,1.00
2023-04-18T10:59:47.315Z,1.10
2023-04-18T11:02:25.260Z,1.25
2023-04-18T11:04:54.132Z,1.10
2023-04-18T11:07:39.068Z,0.90
2023-04-18T11:10:07.964Z,0.87
2023-04-18T11:12:36.904Z,0.90
2023-04-18T11:15:11.227Z,0.95
2023-04-18T11:17:42.259Z,1.00
2023-04-18T11:20:11.010Z,0.85
2023-04-18T11:22:50.828Z,0.97
2023-04-18T11:25:19.200Z,1.05
2023-04-18T11:27:49.888Z,0.85
2023-04-18T11:30:16.678Z,0.90
2023-04-18T11:32:43.876Z,0.80
2023-04-18T11:35:12.874Z,1.00
2023-04-18T11:37:41.404Z,0.90
2023-04-18T11:40:09.935Z,0.90
2023-04-18T11:42:38.967Z,0.88
2023-04-18T11:45:17.387Z,1.08
2023-04-18T11:47:46.753Z,0.70
2023-04-18T11:50:14.161Z,0.98
2023-04-18T11:52:42.643Z,0.80
2023-04-18T11:55:24.002Z,1.20
2023-04-18T11:57:58.015Z,0.90
2023-04-18T12:00:38.803Z,0.90
2023-04-18T12:03:16.365Z,0.95
2023-04-18T12:05:43.543Z,0.70
2023-04-18T12:08:13.245Z,0.73
2023-04-18T12:10:46.899Z,1.00
2023-04-18T12:13:14.050Z,1.20
2023-04-18T12:15:44.389Z,0.80
2023-04-18T12:18:14.193Z,1.00
2023-04-18T12:20:52.596Z,0.80
2023-04-18T12:23:32.838Z,1.00
2023-04-18T12:26:07.977Z,0.90
2023-04-18T12:28:35.649Z,0.90
2023-04-18T12:31:03.090Z,0.98
2023-04-18T12:33:30.566Z,1.10
2023-04-18T12:35:57.498Z,0.95
2023-04-18T12:38:24.275Z,1.00
2023-04-18T12:40:52.085Z,0.90
2023-04-18T12:43:20.066Z,1.00
2023-04-18T12:45:47.367Z,1.00
2023-04-18T12:48:14.210Z,1.20
2023-04-18T12:50:41.177Z,0.80
2023-04-18T12:53:07.924Z,0.90
2023-04-18T12:55:34.738Z,0.70
2023-04-18T12:58:01.505Z,1.00
2023-04-18T13:00:31.479Z,0.80
2023-04-18T13:02:59.007Z,1.00
2023-04-18T13:05:31.659Z,0.98
2023-04-18T13:08:15.260Z,0.80
2023-04-18T13:10:43.763Z,0.90
2023-04-18T13:13:10.802Z,0.88
2023-04-18T13:15:37.676Z,1.13
2023-04-18T13:18:06.364Z,0.82
2023-04-18T13:20:34.360Z,0.75
2023-04-18T13:23:03.060Z,1.02
2023-04-18T13:25:30.088Z,0.98
2023-04-18T13:27:58.657Z,1.00
2023-04-18T13:30:25.652Z,1.00
2023-04-18T13:32:52.537Z,0.70
2023-04-18T13:35:22.860Z,0.90
2023-04-18T13:37:49.787Z,1.10
2023-04-18T13:40:16.885Z,0.90
2023-04-18T13:42:43.534Z,1.00
2023-04-18T13:45:11.027Z,1.05
2023-04-18T13:47:38.426Z,0.98
2023-04-18T13:50:07.193Z,1.02
2023-04-18T13:52:33.904Z,0.87
2023-04-18T13:55:01.036Z,0.80
2023-04-18T13:57:28.437Z,1.05
2023-04-18T13:59:55.125Z,1.10
2023-04-18T14:02:22.343Z,1.20
2023-04-18T14:04:49.496Z,1.10
2023-04-18T14:07:16.612Z,0.80
2023-04-18T14:09:43.342Z,0.90
2023-04-18T14:12:10.638Z,0.80
2023-04-18T14:14:37.332Z,0.95
2023-04-18T14:17:03.981Z,1.40
2023-04-18T14:19:31.108Z,0.70
2023-04-18T14:22:00.272Z,0.95
2023-04-18T14:24:27.076Z,1.08
2023-04-18T14:26:53.746Z,0.85
2023-04-18T14:29:20.407Z,0.87
2023-04-18T14:31:47.450Z,1.10
2023-04-18T14:34:14.351Z,0.80
2023-04-18T14:36:41.159Z,0.85
2023-04-18T14:39:08.411Z,0.90
2023-04-18T14:41:35.372Z,1.00
2023-04-18T14:44:04.312Z,1.00
2023-04-18T14:46:31.598Z,0.80
2023-04-18T14:48:58.382Z,0.80
2023-04-18T14:51:26.283Z,0.90
2023-04-18T14:53:53.094Z,0.90
2023-04-18T14:56:21.744Z,1.00
2023-04-18T14:58:48.510Z,0.98
2023-04-18T15:01:17.553Z,0.90
2023-04-18T15:03:44.743Z,1.00
2023-04-18T15:06:12.242Z,0.90
2023-04-18T15:08:39.278Z,0.80
2023-04-18T15:11:07.497Z,1.00
2023-04-18T15:13:34.466Z,0.80
2023-04-18T15:16:01.438Z,1.13
2023-04-18T15:18:28.319Z,1.20
2023-04-18T15:20:56.940Z,0.93
2023-04-18T15:23:23.791Z,0.90
2023-04-18T15:25:50.616Z,1.25
2023-04-18T15:28:18.680Z,0.98
2023-04-18T15:30:45.883Z,1.40
2023-04-18T15:33:13.260Z,1.15
2023-04-18T15:35:41.357Z,1.00
2023-04-18T15:38:08.091Z,1.30
2023-04-18T15:40:36.174Z,1.10
2023-04-18T15:43:02.983Z,0.90
2023-04-18T15:45:30.200Z,1.05
2023-04-18T15:47:56.852Z,1.00
2023-04-18T15:50:24.090Z,1.00
2023-04-18T15:52:50.855Z,0.88
2023-04-18T15:55:17.781Z,0.90
2023-04-18T15:57:44.884Z,1.20
2023-04-18T16:00:16.186Z,1.02
2023-04-18T16:02:44.491Z,1.30
2023-04-18T16:05:15.362Z,1.00
2023-04-18T16:07:42.961Z,0.80
2023-04-18T16:10:11.162Z,0.80
2023-04-18T16:12:39.397Z,1.20
2023-04-18T16:15:08.460Z,1.17
2023-04-18T16:17:38.921Z,1.00
2023-04-18T16:20:08.160Z,1.17
2023-04-18T16:22:35.020Z,1.00
2023-04-18T16:25:01.965Z,1.10
2023-04-18T16:27:28.695Z,0.70
2023-04-18T16:29:55.846Z,0.90
2023-04-18T16:32:22.550Z,1.00
2023-04-18T16:34:49.884Z,0.90
2023-04-18T16:37:16.603Z,0.90
2023-04-18T16:39:43.491Z,1.17
2023-04-18T16:42:10.211Z,0.98
2023-04-18T16:44:36.904Z,0.80
2023-04-18T16:47:05.086Z,1.02
2023-04-18T16:49:32.000Z,1.00
2023-04-18T16:51:58.695Z,1.00
2023-04-18T16:54:25.392Z,1.23
2023-04-18T16:56:52.022Z,1.00
2023-04-18T16:59:18.759Z,0.90
2023-04-18T17:01:45.544Z,0.90
2023-04-18T17:04:13.143Z,1.15
2023-04-18T17:06:42.384Z,1.00
2023-04-18T17:09:13.981Z,1.40
2023-04-18T17:11:41.755Z,1.10
2023-04-18T17:14:09.302Z,0.98
2023-04-18T17:16:40.891Z,1.20
2023-04-18T17:19:08.584Z,1.00
2023-04-18T17:21:36.667Z,1.00
2023-04-18T17:24:06.617Z,1.00
2023-04-18T17:26:35.419Z,1.00
2023-04-18T17:29:04.070Z,0.88
2023-04-18T17:31:31.741Z,1.05
2023-04-18T17:33:59.133Z,1.00
2023-04-18T17:36:26.296Z,0.90
2023-04-18T17:38:53.017Z,1.30
2023-04-18T17:41:23.773Z,1.10
2023-04-18T17:43:53.485Z,1.40
2023-04-18T17:46:21.177Z,1.13
2023-04-18T17:48:49.076Z,1.13
2023-04-18T17:51:16.555Z,0.90
2023-04-18T17:53:43.630Z,1.00
2023-04-18T17:56:10.576Z,1.20
2023-04-18T17:58:37.401Z,1.27
2023-04-18T18:01:04.822Z,1.23
2023-04-18T18:03:31.621Z,0.93
2023-04-18T18:05:58.560Z,1.13
2023-04-18T18:08:25.736Z,1.20
2023-04-18T18:10:52.489Z,1.17
2023-04-18T18:13:19.295Z,1.40
2023-04-18T18:15:46.060Z,1.17
2023-04-18T18:18:26.471Z,1.50
2023-04-18T18:20:53.096Z,1.33
2023-04-18T18:23:19.741Z,1.33
2023-04-18T18:25:46.454Z,1.38
2023-04-18T18:28:13.318Z,1.10
2023-04-18T18:30:40.098Z,1.30
2023-04-18T18:33:06.827Z,1.23
2023-04-18T18:35:33.482Z,1.43
2023-04-18T18:38:00.151Z,1.58
2023-04-18T18:40:27.041Z,1.20
2023-04-18T18:42:54.817Z,1.10
2023-04-18T18:45:21.637Z,1.30
2023-04-18T18:47:48.645Z,1.40
2023-04-18T18:50:15.637Z,1.30
2023-04-18T18:52:43.195Z,1.23
2023-04-18T18:55:11.216Z,1.00
2023-04-18T18:57:38.059Z,1.58
2023-04-18T19:00:09.674Z,0.90
2023-04-18T19:02:37.223Z,1.10
2023-04-18T19:05:04.452Z,1.15
2023-04-18T19:07:31.160Z,1.30
2023-04-18T19:10:00.466Z,1.10
2023-04-18T19:12:28.215Z,1.33
2023-04-18T19:14:54.873Z,1.05
2023-04-18T19:17:24.780Z,1.05
2023-04-18T19:19:52.984Z,1.30
2023-04-18T19:22:19.676Z,1.25
2023-04-18T19:24:46.324Z,1.50
2023-04-18T19:27:13.209Z,1.00
2023-04-18T19:29:39.867Z,1.17
2023-04-18T19:32:06.556Z,1.13
2023-04-18T19:34:33.289Z,1.00
2023-04-18T19:37:01.212Z,0.87
2023-04-18T19:39:28.248Z,1.10
2023-04-18T19:41:55.074Z,1.10
2023-04-18T19:44:21.939Z,1.48
2023-04-18T19:46:48.619Z,1.05
2023-04-18T19:49:15.407Z,1.10
2023-04-18T19:51:42.207Z,1.00
2023-04-18T19:54:08.889Z,1.00
2023-04-18T19:56:35.672Z,1.10
2023-04-18T19:59:02.469Z,1.10
2023-04-18T20:01:29.269Z,0.90
2023-04-18T20:03:58.655Z,1.00
2023-04-18T20:06:26.818Z,1.13
2023-04-18T20:08:53.701Z,1.00
2023-04-18T20:11:20.462Z,0.85
2023-04-18T20:13:47.157Z,0.80
2023-04-18T20:16:13.964Z,1.10
2023-04-18T20:18:41.723Z,1.00
2023-04-18T20:21:09.830Z,1.00
2023-04-18T20:23:37.068Z,1.20
2023-04-18T20:26:04.392Z,1.07
2023-04-18T20:28:31.742Z,0.82
2023-04-18T20:30:58.918Z,1.00
2023-04-18T20:33:25.744Z,1.33
2023-04-18T20:35:54.702Z,1.20
2023-04-18T20:38:26.010Z,1.60
2023-04-18T20:40:54.293Z,1.10
2023-04-18T20:43:21.481Z,0.80
2023-04-18T20:45:51.067Z,1.10
2023-04-18T20:48:18.308Z,0.90
2023-04-18T20:50:50.811Z,0.90
2023-04-18T20:53:21.065Z,1.00
2023-04-18T20:55:48.710Z,0.90
2023-04-18T20:58:15.773Z,1.10
2023-04-18T21:00:43.727Z,0.80
2023-04-18T21:03:13.087Z,0.97
2023-04-18T21:05:40.192Z,0.90
2023-04-18T21:08:06.926Z,0.90
2023-04-18T21:10:34.003Z,1.13
2023-04-18T21:13:00.968Z,1.17
2023-04-18T21:15:27.701Z,1.03
2023-04-18T21:17:54.393Z,1.15
2023-04-18T21:20:21.449Z,1.05
2023-04-18T21:22:48.091Z,0.80
2023-04-18T21:25:14.766Z,1.10
2023-04-18T21:27:41.470Z,1.00
2023-04-18T21:30:08.435Z,1.30
2023-04-18T21:32:35.106Z,0.80
2023-04-18T21:35:02.522Z,0.90
2023-04-18T21:37:31.524Z,1.20
2023-04-18T21:39:58.232Z,1.20
2023-04-18T21:42:24.946Z,1.00
2023-04-18T21:44:51.638Z,1.15
2023-04-18T21:47:18.408Z,0.88
2023-04-18T21:49:45.076Z,1.10
2023-04-18T21:52:11.675Z,1.00
2023-04-18T21:54:39.816Z,0.90
2023-04-18T21:57:06.734Z,1.30
2023-04-18T21:59:33.412Z,0.90
2023-04-18T22:02:00.199Z,0.90
2023-04-18T22:04:27.709Z,0.87
2023-04-18T22:06:54.739Z,0.90
2023-04-18T22:09:22.393Z,0.80
2023-04-18T22:11:51.111Z,0.85
2023-04-18T22:14:20.006Z,1.20
2023-04-18T22:16:46.707Z,1.00
2023-04-18T22:19:14.119Z,0.90
2023-04-18T22:21:40.795Z,1.13
2023-04-18T22:24:08.404Z,1.00
2023-04-18T22:26:35.065Z,1.13
2023-04-18T22:29:01.783Z,1.03
2023-04-18T22:31:28.692Z,1.20
2023-04-18T22:33:55.706Z,1.10
2023-04-18T22:36:22.333Z,0.80
2023-04-18T22:38:49.043Z,0.90
2023-04-18T22:41:15.798Z,1.30
2023-04-18T22:43:42.588Z,0.90
2023-04-18T22:46:09.344Z,1.00
2023-04-18T22:48:36.164Z,0.90
2023-04-18T22:51:03.331Z,0.90
2023-04-18T22:53:30.029Z,0.90
2023-04-18T22:55:57.091Z,0.90
2023-04-18T22:58:23.795Z,1.40
2023-04-18T23:00:50.630Z,1.20
2023-04-18T23:03:17.445Z,1.15
2023-04-18T23:05:44.139Z,1.13
2023-04-18T23:08:11.921Z,1.05
2023-04-18T23:10:39.054Z,1.05
2023-04-18T23:13:05.757Z,1.15
2023-04-18T23:15:32.658Z,0.93
2023-04-18T23:17:59.509Z,1.20
2023-04-18T23:20:26.233Z,1.05
2023-04-18T23:22:53.672Z,0.90
2023-04-18T23:25:20.984Z,0.90
2023-04-18T23:27:47.942Z,1.27
2023-04-18T23:30:14.790Z,1.00
2023-04-18T23:32:41.642Z,1.30
2023-04-18T23:35:08.834Z,1.15
2023-04-18T23:37:35.542Z,2.28
2023-04-18T23:40:04.148Z,1.40
2023-04-18T23:42:34.635Z,1.20
2023-04-18T23:45:01.573Z,1.00
2023-04-18T23:47:28.303Z,1.77
2023-04-18T23:49:55.111Z,1.40
2023-04-18T23:52:22.192Z,1.10
2023-04-18T23:54:48.851Z,1.70
2023-04-18T23:57:16.089Z,1.38
2023-04-18T23:59:42.840Z,1.85
